createdAt,value
2023-01-29T11:02:18.149Z,66.81
2023-01-29T11:06:26.789Z,65.62
2023-01-29T11:10:29.420Z,66.35
2023-01-29T11:14:37.117Z,65.47
2023-01-29T11:18:59.678Z,63.05
2023-01-29T11:23:00.508Z,62.78
2023-01-29T11:27:04.500Z,62.01
2023-01-29T11:31:05.420Z,61.69
2023-01-29T11:35:24.157Z,60.48
2023-01-29T11:39:27.583Z,60.99
2023-01-29T11:43:33.853Z,61.15
2023-01-29T11:47:35.808Z,59.87
2023-01-29T11:51:42.165Z,58.64
2023-01-29T11:55:50.573Z,56.88
2023-01-29T11:59:55.034Z,57.45
2023-01-29T12:03:57.261Z,57.24
2023-01-29T12:08:03.348Z,57.54
2023-01-29T12:12:30.860Z,58.30
2023-01-29T12:16:39.366Z,57.86
2023-01-29T12:20:47.780Z,57.35
2023-01-29T12:24:59.879Z,56.88
2023-01-29T12:29:24.027Z,58.32
2023-01-29T12:33:40.020Z,58.56
2023-01-29T12:37:54.988Z,56.95
2023-01-29T12:42:05.021Z,56.26
2023-01-29T12:46:21.574Z,55.38
2023-01-29T12:50:27.050Z,54.59
2023-01-29T12:54:39.693Z,54.54
2023-01-29T12:58:49.649Z,54.67
2023-01-29T13:03:00.979Z,55.16
2023-01-29T13:07:15.640Z,55.29
2023-01-29T13:11:25.101Z,55.92
2023-01-29T13:15:37.862Z,54.98
2023-01-29T13:19:45.442Z,55.92
2023-01-29T13:23:50.090Z,55.80
2023-01-29T13:27:52.095Z,55.77
2023-01-29T13:31:58.135Z,55.38
2023-01-29T13:36:03.019Z,55.21
2023-01-29T13:40:06.249Z,55.65
2023-01-29T13:44:11.666Z,54.99
2023-01-29T13:48:28.717Z,53.68
2023-01-29T13:52:39.988Z,54.48
2023-01-29T13:56:59.458Z,54.74
2023-01-29T14:01:01.726Z,55.45
2023-01-29T14:05:45.475Z,56.27
2023-01-29T14:10:16.626Z,56.55
2023-01-29T14:15:08.593Z,56.56
2023-01-29T14:19:09.705Z,56.49
2023-01-29T14:23:32.802Z,57.02
2023-01-29T14:27:34.890Z,57.12
2023-01-29T14:31:44.424Z,56.43
2023-01-29T14:35:54.303Z,57.02
2023-01-29T14:40:02.840Z,58.10
2023-01-29T14:44:48.442Z,58.20
2023-01-29T14:48:52.085Z,58.93
2023-01-29T14:52:56.630Z,59.41
2023-01-29T14:57:08.234Z,59.25
2023-01-29T15:01:21.272Z,59.27
2023-01-29T15:05:26.257Z,60.59
2023-01-29T15:09:41.842Z,60.99
2023-01-29T15:13:54.058Z,60.88
2023-01-29T15:18:02.334Z,62.02
2023-01-29T15:22:07.306Z,62.75
2023-01-29T15:26:16.160Z,62.91
2023-01-29T15:30:24.985Z,63.39
2023-01-29T15:34:26.298Z,64.06
2023-01-29T15:38:29.578Z,64.81
2023-01-29T15:42:32.152Z,64.11
2023-01-29T15:46:39.665Z,64.15
2023-01-29T15:50:45.034Z,63.99
2023-01-29T15:54:46.249Z,64.51
2023-01-29T15:58:50.949Z,65.21
2023-01-29T16:02:53.789Z,65.71
2023-01-29T16:06:57.170Z,65.94
2023-01-29T16:11:01.346Z,66.32
2023-01-29T16:15:02.324Z,67.18
2023-01-29T16:19:15.922Z,66.95
2023-01-29T16:23:23.362Z,66.96
2023-01-29T16:27:23.694Z,67.25
2023-01-29T16:31:31.511Z,67.53
2023-01-29T16:35:35.593Z,67.85
2023-01-29T16:39:41.146Z,67.79
2023-01-29T16:43:54.535Z,68.06
2023-01-29T16:48:05.361Z,68.52
2023-01-29T16:52:21.995Z,68.64
2023-01-29T16:56:25.912Z,68.77
2023-01-29T17:00:30.501Z,69.31
2023-01-29T17:04:31.646Z,70.36
2023-01-29T17:08:37.694Z,71.00
2023-01-29T17:12:39.060Z,71.43
2023-01-29T17:16:52.161Z,72.39
2023-01-29T17:20:53.714Z,72.70
2023-01-29T17:24:56.398Z,72.11
2023-01-29T17:28:57.738Z,72.50
2023-01-29T17:32:57.747Z,73.03
2023-01-29T17:36:57.953Z,73.49
2023-01-29T17:41:05.101Z,73.77
2023-01-29T17:45:05.425Z,74.07
2023-01-29T17:49:07.622Z,74.40
2023-01-29T17:53:07.768Z,74.08
2023-01-29T17:57:13.105Z,74.42
2023-01-29T18:01:13.703Z,74.85
2023-01-29T18:05:16.264Z,76.42
2023-01-29T18:09:19.801Z,76.48
2023-01-29T18:13:22.479Z,76.48
2023-01-29T18:17:23.476Z,75.79
2023-01-29T18:21:23.726Z,76.31
2023-01-29T18:25:25.863Z,76.42
2023-01-29T18:29:30.170Z,76.19
2023-01-29T18:33:30.321Z,76.89
2023-01-29T18:37:31.040Z,76.96
2023-01-29T18:41:31.142Z,77.54
2023-01-29T18:45:34.233Z,77.17
2023-01-29T18:49:36.312Z,77.08
2023-01-29T18:53:36.440Z,78.57
2023-01-29T18:58:27.426Z,78.35
2023-01-29T19:02:00.991Z,79.95
2023-01-29T19:06:03.995Z,80.26
2023-01-29T19:10:06.844Z,79.32
2023-01-29T19:14:06.966Z,79.14
2023-01-29T19:18:09.897Z,79.43
2023-01-29T19:22:10.368Z,80.33
2023-01-29T19:26:10.803Z,80.29
2023-01-29T19:30:13.480Z,81.03
2023-01-29T19:34:17.432Z,81.26
2023-01-29T19:38:21.344Z,81.56
2023-01-29T19:42:21.530Z,81.45
2023-01-29T19:46:21.898Z,81.47
2023-01-29T19:50:24.957Z,82.79
2023-01-29T19:54:27.490Z,82.08
2023-01-29T19:58:48.329Z,82.43
2023-01-29T20:02:50.360Z,82.33
2023-01-29T20:06:56.921Z,81.53
2023-01-29T20:10:59.962Z,81.75
2023-01-29T20:15:02.752Z,81.98
2023-01-29T20:19:29.895Z,81.71
2023-01-29T20:23:46.164Z,82.69
2023-01-29T20:27:50.349Z,82.73
2023-01-29T20:31:55.476Z,82.12
2023-01-29T20:36:05.891Z,83.25
2023-01-29T20:40:11.831Z,83.40
2023-01-29T20:44:12.538Z,82.70
2023-01-29T20:48:14.035Z,82.76
2023-01-29T20:52:14.493Z,82.49
2023-01-29T20:56:18.735Z,82.70
2023-01-29T21:00:46.096Z,83.19
2023-01-29T21:04:51.041Z,83.93
2023-01-29T21:08:52.199Z,83.11
2023-01-29T21:12:55.915Z,84.08
2023-01-29T21:16:56.824Z,84.26
2023-01-29T21:20:57.689Z,83.57
2023-01-29T21:24:57.838Z,82.73
2023-01-29T21:29:00.513Z,81.79
2023-01-29T21:33:00.799Z,81.29
2023-01-29T21:37:00.960Z,80.95
2023-01-29T21:41:05.503Z,80.79
2023-01-29T21:45:10.220Z,81.54
2023-01-29T21:49:10.537Z,81.24
2023-01-29T21:53:10.688Z,82.23
2023-01-29T21:57:16.324Z,83.30
2023-01-29T22:01:37.536Z,83.19
2023-01-29T22:05:39.601Z,81.58
2023-01-29T22:09:40.523Z,81.41
2023-01-29T22:13:41.047Z,81.29
2023-01-29T22:17:44.467Z,81.51
2023-01-29T22:21:45.002Z,83.50
2023-01-29T22:25:45.310Z,83.85
2023-01-29T22:29:45.625Z,84.88
2023-01-29T22:33:49.083Z,85.74
2023-01-29T22:37:49.145Z,85.63
2023-01-29T22:41:49.424Z,88.82
2023-01-29T22:45:50.062Z,86.89
2023-01-29T22:49:52.754Z,86.12
2023-01-29T22:53:54.971Z,85.45
2023-01-29T22:57:55.000Z,85.63
2023-01-29T23:01:55.121Z,85.51
2023-01-29T23:05:57.846Z,85.38
2023-01-29T23:09:58.027Z,85.36
2023-01-29T23:13:58.550Z,85.29
2023-01-29T23:17:58.807Z,84.71
2023-01-29T23:22:01.579Z,83.83
2023-01-29T23:26:15.149Z,83.99
2023-01-29T23:30:16.761Z,83.49
2023-01-29T23:34:17.334Z,83.92
2023-01-29T23:38:20.186Z,84.42
2023-01-29T23:42:20.524Z,83.47
2023-01-29T23:46:20.773Z,85.24
2023-01-29T23:50:21.230Z,85.99
2023-01-29T23:54:24.182Z,85.75
2023-01-29T23:58:24.374Z,84.09
